Terminal Aerodrome Forecast
Issued by NWS

Home | Current Version | Previous Version | Text Only | Print | Product List | Glossary On
Versions: 1 2 3 4 5 6 7 8 9 10 11 12
000
FTUS45 KPIH 171723
TAFSUN
TAF
KSUN 171723Z 1718/1824 32009KT P6SM OVC150
     FM171900 12006KT P6SM OVC150
     FM180300 32009KT P6SM SCT030 BKN050=

USA.gov is the U.S. government's official web portal to all federal, state and local government web resources and services.